Time,TemperatureF,DewpointF,PressureIn,WindDirection,WindDirectionDegrees,WindSpeedMPH,WindSpeedGustMPH,Humidity,HourlyPrecipIn,Conditions,Clouds,dailyrainin,SolarRadiationWatts/m^2,SoftwareType,DateUTC
2013-07-22 00:11:00,69.0,45.0,-100.00,NW,320,11.0,27.0,42,0.00,,,0.00,0.000000,,2013-07-22 07:11:00,
2013-07-22 00:22:00,69.0,45.0,-100.00,NW,320,11.0,27.0,42,0.00,,,0.00,0.000000,,2013-07-22 07:22:00,
2013-07-22 00:33:00,69.0,45.0,-100.00,NW,320,11.0,27.0,42,0.00,,,0.00,0.000000,,2013-07-22 07:33:00,
2013-07-22 00:43:00,69.0,45.0,-100.00,NW,320,11.0,27.0,42,0.00,,,0.00,0.000000,,2013-07-22 07:43:00,
2013-07-22 01:22:00,68.0,45.0,-100.00,NW,322,11.0,16.0,43,0.00,,,0.00,0.000000,,2013-07-22 08:22:00,
2013-07-22 01:32:00,68.0,45.0,-100.00,NW,322,11.0,16.0,43,0.00,,,0.00,0.000000,,2013-07-22 08:32:00,
2013-07-22 01:43:00,68.0,45.0,-100.00,NW,322,11.0,16.0,43,0.00,,,0.00,0.000000,,2013-07-22 08:43:00,
2013-07-22 02:11:00,66.0,41.0,-100.00,WNW,302,9.0,22.0,40,0.00,,,0.00,0.000000,,2013-07-22 09:11:00,
2013-07-22 02:22:00,66.0,41.0,-100.00,WNW,302,9.0,22.0,40,0.00,,,0.00,0.000000,,2013-07-22 09:22:00,
2013-07-22 02:33:00,66.0,41.0,-100.00,WNW,302,9.0,22.0,40,0.00,,,0.00,0.000000,,2013-07-22 09:33:00,
2013-07-22 02:42:00,66.0,41.0,-100.00,WNW,302,9.0,22.0,40,0.00,,,0.00,0.000000,,2013-07-22 09:42:00,
2013-07-22 03:11:00,62.0,37.0,-100.00,NW,318,9.0,14.0,40,0.00,,,-99.99,0.000000,,2013-07-22 10:11:00,
2013-07-22 03:22:00,62.0,37.0,-100.00,NW,318,9.0,14.0,40,0.00,,,-99.99,0.000000,,2013-07-22 10:22:00,
2013-07-22 03:32:00,62.0,37.0,-100.00,NW,318,9.0,14.0,40,0.00,,,-99.99,0.000000,,2013-07-22 10:32:00,
2013-07-22 03:43:00,62.0,37.0,-100.00,NW,318,9.0,14.0,40,0.00,,,-99.99,0.000000,,2013-07-22 10:43:00,
2013-07-22 04:11:00,61.0,36.0,-100.00,NNW,333,7.0,11.0,40,0.00,,,0.00,0.000000,,2013-07-22 11:11:00,
2013-07-22 04:22:00,61.0,36.0,-100.00,NNW,333,7.0,11.0,40,0.00,,,0.00,0.000000,,2013-07-22 11:22:00,
2013-07-22 04:32:00,61.0,36.0,-100.00,NNW,333,7.0,11.0,40,0.00,,,0.00,0.000000,,2013-07-22 11:32:00,
2013-07-22 04:43:00,61.0,36.0,-100.00,NNW,333,7.0,11.0,40,0.00,,,0.00,0.000000,,2013-07-22 11:43:00,
2013-07-22 05:11:00,62.0,36.0,-100.00,NW,322,10.0,15.0,38,0.00,,,0.00,0.000000,,2013-07-22 12:11:00,
2013-07-22 05:22:00,62.0,36.0,-100.00,NW,322,10.0,15.0,38,0.00,,,0.00,0.000000,,2013-07-22 12:22:00,
2013-07-22 05:32:00,62.0,36.0,-100.00,NW,322,10.0,15.0,38,0.00,,,0.00,0.000000,,2013-07-22 12:32:00,
2013-07-22 05:43:00,62.0,36.0,-100.00,NW,322,10.0,15.0,38,0.00,,,0.00,0.000000,,2013-07-22 12:43:00,
2013-07-22 06:11:00,59.0,35.0,-100.00,NW,324,7.0,13.0,40,0.00,,,0.00,0.000000,,2013-07-22 13:11:00,
2013-07-22 06:22:00,59.0,35.0,-100.00,NW,324,7.0,13.0,40,0.00,,,0.00,0.000000,,2013-07-22 13:22:00,
2013-07-22 06:32:00,59.0,35.0,-100.00,NW,324,7.0,13.0,40,0.00,,,0.00,0.000000,,2013-07-22 13:32:00,
2013-07-22 06:43:00,59.0,35.0,-100.00,NW,324,7.0,13.0,40,0.00,,,0.00,0.000000,,2013-07-22 13:43:00,
2013-07-22 07:11:00,68.0,39.0,-100.00,NNW,328,8.0,12.0,34,0.00,,,0.00,0.000000,,2013-07-22 14:11:00,
2013-07-22 07:22:00,68.0,39.0,-100.00,NNW,328,8.0,12.0,34,0.00,,,0.00,0.000000,,2013-07-22 14:22:00,
2013-07-22 07:32:00,68.0,39.0,-100.00,NNW,328,8.0,12.0,34,0.00,,,0.00,0.000000,,2013-07-22 14:32:00,
2013-07-22 07:42:00,68.0,39.0,-100.00,NNW,328,8.0,12.0,34,0.00,,,0.00,0.000000,,2013-07-22 14:42:00,
2013-07-22 08:22:00,73.0,39.0,-100.00,NNW,339,7.0,12.0,29,0.00,,,0.00,70.000000,,2013-07-22 15:22:00,
2013-07-22 08:32:00,73.0,39.0,-100.00,NNW,339,7.0,12.0,29,0.00,,,0.00,70.000000,,2013-07-22 15:32:00,
2013-07-22 08:42:00,73.0,39.0,-100.00,NNW,339,7.0,12.0,29,0.00,,,0.00,70.000000,,2013-07-22 15:42:00,
2013-07-22 09:11:00,79.0,39.0,-100.00,NW,313,8.0,12.0,24,0.00,,,0.00,250.000000,,2013-07-22 16:11:00,
2013-07-22 09:21:00,79.0,39.0,-100.00,NW,313,8.0,12.0,24,0.00,,,0.00,250.000000,,2013-07-22 16:21:00,
2013-07-22 09:32:00,79.0,39.0,-100.00,NW,313,8.0,12.0,24,0.00,,,0.00,250.000000,,2013-07-22 16:32:00,
2013-07-22 09:43:00,79.0,39.0,-100.00,NW,313,8.0,12.0,24,0.00,,,0.00,250.000000,,2013-07-22 16:43:00,
2013-07-22 12:43:00,89.0,35.0,-100.00,SE,127,6.0,12.0,15,0.00,,,-99.99,668.000000,,2013-07-22 19:43:00,
2013-07-22 13:32:00,90.0,33.0,-100.00,NW,322,5.0,13.0,13,0.00,,,0.00,721.000000,,2013-07-22 20:32:00,
2013-07-22 13:43:00,90.0,33.0,-100.00,NW,322,5.0,13.0,13,0.00,,,0.00,721.000000,,2013-07-22 20:43:00,
2013-07-22 14:11:00,93.0,31.0,-100.00,NNW,332,8.0,17.0,11,0.00,,,0.00,723.000000,,2013-07-22 21:11:00,
2013-07-22 14:22:00,93.0,31.0,-100.00,NNW,332,8.0,17.0,11,0.00,,,0.00,723.000000,,2013-07-22 21:22:00,
2013-07-22 14:32:00,93.0,31.0,-100.00,NNW,332,8.0,17.0,11,0.00,,,0.00,723.000000,,2013-07-22 21:32:00,
2013-07-22 14:43:00,93.0,31.0,-100.00,NNW,332,8.0,17.0,11,0.00,,,0.00,723.000000,,2013-07-22 21:43:00,
2013-07-22 19:11:00,88.0,41.0,-100.00,WNW,283,13.0,23.0,19,0.00,,,0.00,49.000000,,2013-07-23 02:11:00,
2013-07-22 19:22:00,88.0,41.0,-100.00,WNW,283,13.0,23.0,19,0.00,,,0.00,49.000000,,2013-07-23 02:22:00,
2013-07-22 19:33:00,88.0,41.0,-100.00,WNW,283,13.0,23.0,19,0.00,,,0.00,49.000000,,2013-07-23 02:33:00,
2013-07-22 19:43:00,88.0,41.0,-100.00,WNW,283,13.0,23.0,19,0.00,,,0.00,49.000000,,2013-07-23 02:43:00,
2013-07-22 20:11:00,86.0,45.0,-100.00,West,277,11.0,19.0,24,0.00,,,-99.99,0.000000,,2013-07-23 03:11:00,
2013-07-22 20:22:00,86.0,45.0,-100.00,West,277,11.0,19.0,24,0.00,,,-99.99,0.000000,,2013-07-23 03:22:00,
2013-07-22 20:33:00,86.0,45.0,-100.00,West,277,11.0,19.0,24,0.00,,,-99.99,0.000000,,2013-07-23 03:33:00,
2013-07-22 20:43:00,86.0,45.0,-100.00,West,277,11.0,19.0,24,0.00,,,-99.99,0.000000,,2013-07-23 03:43:00,
2013-07-22 21:21:00,79.0,43.0,-100.00,WNW,289,11.0,19.0,28,0.00,,,0.00,0.000000,,2013-07-23 04:21:00,
2013-07-22 21:32:00,79.0,43.0,-100.00,WNW,289,11.0,19.0,28,0.00,,,0.00,0.000000,,2013-07-23 04:32:00,
2013-07-22 21:42:00,79.0,43.0,-100.00,WNW,289,11.0,19.0,28,0.00,,,0.00,0.000000,,2013-07-23 04:42:00,
2013-07-22 22:11:00,73.0,43.0,-100.00,NW,307,10.0,17.0,34,0.00,,,0.00,0.000000,,2013-07-23 05:11:00,
2013-07-22 22:22:00,73.0,43.0,-100.00,NW,307,10.0,17.0,34,0.00,,,0.00,0.000000,,2013-07-23 05:22:00,
2013-07-22 22:33:00,73.0,43.0,-100.00,NW,307,10.0,17.0,34,0.00,,,0.00,0.000000,,2013-07-23 05:33:00,
2013-07-22 22:43:00,73.0,43.0,-100.00,NW,307,10.0,17.0,34,0.00,,,0.00,0.000000,,2013-07-23 05:43:00,
2013-07-22 23:11:00,72.0,45.0,-100.00,WNW,294,9.0,15.0,38,0.00,,,0.00,0.000000,,2013-07-23 06:11:00,
2013-07-22 23:22:00,72.0,45.0,-100.00,WNW,294,9.0,15.0,38,0.00,,,0.00,0.000000,,2013-07-23 06:22:00,
2013-07-22 23:33:00,72.0,45.0,-100.00,WNW,294,9.0,15.0,38,0.00,,,0.00,0.000000,,2013-07-23 06:33:00,
2013-07-22 23:42:00,72.0,45.0,-100.00,WNW,294,9.0,15.0,38,0.00,,,0.00,0.000000,,2013-07-23 06:42:00,